createdAt,value
2018-05-15T00:00:22.256Z,0
2018-05-15T00:00:48.423Z,0
2018-05-15T00:01:14.603Z,0
2018-05-15T00:01:40.941Z,0
2018-05-15T00:02:07.249Z,0
2018-05-15T00:02:33.420Z,0
2018-05-15T00:02:59.661Z,0
2018-05-15T00:03:25.919Z,0
2018-05-15T00:03:52.032Z,0
2018-05-15T00:04:18.187Z,0
2018-05-15T00:04:44.372Z,0
2018-05-15T00:05:10.500Z,0
2018-05-15T00:05:36.647Z,0
2018-05-15T00:06:02.938Z,0
2018-05-15T00:06:29.043Z,0
2018-05-15T00:06:55.229Z,0
2018-05-15T00:07:21.545Z,0
2018-05-15T00:07:47.706Z,0
2018-05-15T00:08:13.922Z,0
2018-05-15T00:08:40.061Z,0
2018-05-15T00:09:06.306Z,0
2018-05-15T00:09:32.613Z,0
2018-05-15T00:09:58.724Z,0
2018-05-15T00:10:24.897Z,0
2018-05-15T00:10:51.085Z,0
2018-05-15T00:11:17.234Z,0
2018-05-15T00:11:43.414Z,0
2018-05-15T00:12:09.634Z,0
2018-05-15T00:12:35.905Z,0
2018-05-15T00:13:02.078Z,0
2018-05-15T00:13:28.273Z,0
2018-05-15T00:13:54.426Z,0
2018-05-15T00:14:20.577Z,0
2018-05-15T00:14:46.727Z,0
2018-05-15T00:15:13.053Z,0
2018-05-15T00:15:39.220Z,0
2018-05-15T00:16:05.413Z,0
2018-05-15T00:16:31.474Z,0
2018-05-15T00:16:57.631Z,0
2018-05-15T00:17:23.864Z,0
2018-05-15T00:17:50.022Z,0
2018-05-15T00:18:16.211Z,0
2018-05-15T00:18:42.352Z,0
2018-05-15T00:19:08.503Z,0
2018-05-15T00:19:34.628Z,0
2018-05-15T00:20:00.783Z,0
2018-05-15T00:20:26.931Z,0
2018-05-15T00:20:53.113Z,0
2018-05-15T00:21:19.250Z,0
2018-05-15T00:21:45.465Z,0
2018-05-15T00:22:11.599Z,0
2018-05-15T00:22:37.747Z,0
2018-05-15T00:23:04.032Z,0
2018-05-15T00:23:30.209Z,0
2018-05-15T00:23:56.518Z,0
2018-05-15T00:24:22.785Z,0
2018-05-15T00:24:48.940Z,0
2018-05-15T00:25:15.111Z,0
2018-05-15T00:25:41.332Z,0
2018-05-15T00:26:07.685Z,0
2018-05-15T00:26:33.844Z,0
2018-05-15T00:26:59.959Z,0
2018-05-15T00:27:26.127Z,0
2018-05-15T00:27:52.286Z,0
2018-05-15T00:28:18.411Z,0
2018-05-15T00:28:44.668Z,0
2018-05-15T00:29:10.952Z,0
2018-05-15T00:29:37.133Z,0
2018-05-15T00:30:03.297Z,0
2018-05-15T00:30:29.488Z,0
2018-05-15T00:30:55.821Z,0
2018-05-15T00:31:21.922Z,0
2018-05-15T00:31:48.253Z,0
2018-05-15T00:32:14.471Z,0
2018-05-15T00:32:40.603Z,0
2018-05-15T00:33:06.768Z,0
2018-05-15T00:33:32.969Z,0
2018-05-15T00:33:59.098Z,0
2018-05-15T00:34:25.258Z,0
2018-05-15T00:34:51.404Z,0
2018-05-15T00:35:17.567Z,0
2018-05-15T00:35:43.694Z,0
2018-05-15T00:36:09.839Z,0
2018-05-15T00:36:35.967Z,0
2018-05-15T00:37:02.116Z,0
2018-05-15T00:37:28.262Z,0
2018-05-15T00:37:54.388Z,0
2018-05-15T00:38:20.560Z,0
2018-05-15T00:38:46.687Z,0
2018-05-15T00:39:12.837Z,0
2018-05-15T00:39:38.959Z,0
2018-05-15T00:40:05.085Z,0
2018-05-15T00:40:31.212Z,0
2018-05-15T00:40:57.356Z,0
2018-05-15T00:41:23.481Z,0
2018-05-15T00:41:49.607Z,0
2018-05-15T00:42:15.736Z,0
2018-05-15T00:42:41.879Z,0
2018-05-15T00:43:08.018Z,0
2018-05-15T00:43:34.130Z,0
2018-05-15T00:44:00.276Z,0
2018-05-15T00:44:26.417Z,0
2018-05-15T00:44:52.541Z,0
2018-05-15T00:45:18.666Z,0
2018-05-15T00:45:44.792Z,0
2018-05-15T00:46:10.938Z,0
2018-05-15T00:46:37.065Z,0
2018-05-15T00:47:03.218Z,0
2018-05-15T00:47:29.360Z,0
2018-05-15T00:47:55.507Z,0
2018-05-15T00:48:21.633Z,0
2018-05-15T00:48:47.760Z,0
2018-05-15T00:49:13.907Z,0
2018-05-15T00:49:40.051Z,0
2018-05-15T00:50:06.210Z,0
2018-05-15T00:50:32.351Z,0
2018-05-15T00:50:58.512Z,0
2018-05-15T00:51:24.655Z,0
2018-05-15T00:51:50.803Z,0
2018-05-15T00:52:16.939Z,0
2018-05-15T00:52:43.081Z,0
2018-05-15T00:53:09.226Z,0
2018-05-15T00:53:35.364Z,0
2018-05-15T00:54:01.508Z,0
2018-05-15T00:54:27.649Z,0
2018-05-15T00:54:53.790Z,0
2018-05-15T00:55:19.924Z,0
2018-05-15T00:55:46.066Z,0
2018-05-15T00:56:12.232Z,0
2018-05-15T00:56:38.372Z,0
2018-05-15T00:57:04.509Z,0
2018-05-15T00:57:30.654Z,0
2018-05-15T00:57:56.797Z,0
2018-05-15T00:58:22.938Z,0
2018-05-15T00:58:49.073Z,0
2018-05-15T00:59:15.237Z,0
2018-05-15T00:59:41.376Z,0
2018-05-15T01:00:07.522Z,0
2018-05-15T01:00:33.664Z,0
2018-05-15T01:00:59.805Z,0
2018-05-15T01:01:25.944Z,0
2018-05-15T01:01:52.077Z,0
2018-05-15T01:02:18.203Z,0
2018-05-15T01:02:44.347Z,0
2018-05-15T01:03:10.506Z,0
2018-05-15T01:03:36.645Z,0
2018-05-15T01:04:02.790Z,0
2018-05-15T01:04:28.982Z,0
2018-05-15T01:04:55.139Z,0
2018-05-15T01:05:21.284Z,0
2018-05-15T01:05:47.424Z,0
2018-05-15T01:06:13.584Z,0
2018-05-15T01:06:39.726Z,0
2018-05-15T01:07:05.892Z,0
2018-05-15T01:07:32.032Z,0
2018-05-15T01:07:58.171Z,0
2018-05-15T01:08:24.312Z,0
2018-05-15T01:08:50.445Z,0
2018-05-15T01:09:16.583Z,0
2018-05-15T01:09:42.730Z,0
2018-05-15T01:10:08.866Z,0
2018-05-15T01:10:35.006Z,0
2018-05-15T01:11:01.164Z,0
2018-05-15T01:11:27.300Z,0
2018-05-15T01:11:53.456Z,0
2018-05-15T01:12:19.589Z,0
2018-05-15T01:12:45.756Z,0
2018-05-15T01:13:11.902Z,0
2018-05-15T01:13:38.043Z,0
2018-05-15T01:14:04.182Z,0
2018-05-15T01:14:30.345Z,0
2018-05-15T01:14:56.484Z,0
2018-05-15T01:15:22.624Z,0
2018-05-15T01:15:48.762Z,0
2018-05-15T01:16:14.925Z,0
2018-05-15T01:16:41.067Z,0
2018-05-15T01:17:07.200Z,0
2018-05-15T01:17:33.404Z,0
2018-05-15T01:17:59.540Z,0
2018-05-15T01:18:25.671Z,0
2018-05-15T01:18:51.818Z,0
2018-05-15T01:19:17.977Z,0
2018-05-15T01:19:44.121Z,0
2018-05-15T01:20:10.291Z,0
2018-05-15T01:20:36.428Z,0
2018-05-15T01:21:02.595Z,0
2018-05-15T01:21:28.763Z,0
2018-05-15T01:21:54.908Z,0
2018-05-15T01:22:21.050Z,0
2018-05-15T01:22:47.186Z,0
2018-05-15T01:23:13.329Z,0
2018-05-15T01:23:39.543Z,0
2018-05-15T01:24:05.620Z,0
2018-05-15T01:24:31.778Z,0
2018-05-15T01:24:57.917Z,0
2018-05-15T01:25:24.050Z,0
2018-05-15T01:25:50.196Z,0
2018-05-15T01:26:16.332Z,0
2018-05-15T01:26:42.471Z,0
2018-05-15T01:27:08.645Z,0
2018-05-15T01:27:34.806Z,0
2018-05-15T01:28:00.969Z,0
2018-05-15T01:28:27.110Z,0
2018-05-15T01:28:53.267Z,0
2018-05-15T01:29:19.410Z,0
2018-05-15T01:29:45.555Z,0
2018-05-15T01:30:11.693Z,0
2018-05-15T01:30:37.879Z,0
2018-05-15T01:31:04.021Z,0
2018-05-15T01:31:30.179Z,0
2018-05-15T01:31:56.368Z,0
2018-05-15T01:32:22.533Z,0
2018-05-15T01:32:48.674Z,0
2018-05-15T01:33:14.833Z,0
2018-05-15T01:33:40.975Z,0
2018-05-15T01:34:07.118Z,0
2018-05-15T01:34:33.257Z,0
2018-05-15T01:34:59.399Z,0
2018-05-15T01:35:25.541Z,0
2018-05-15T01:35:51.710Z,0
2018-05-15T01:36:17.869Z,0
2018-05-15T01:36:44.002Z,0
2018-05-15T01:37:10.150Z,0
2018-05-15T01:37:36.285Z,0
2018-05-15T01:38:02.433Z,0
2018-05-15T01:38:28.616Z,0
2018-05-15T01:38:54.764Z,0
2018-05-15T01:39:20.882Z,0
2018-05-15T01:39:47.045Z,0
2018-05-15T01:40:13.183Z,0
2018-05-15T01:40:39.330Z,0
2018-05-15T01:41:05.466Z,0
2018-05-15T01:41:31.605Z,0
2018-05-15T01:41:57.739Z,0
2018-05-15T01:42:23.917Z,0
2018-05-15T01:42:50.066Z,0
2018-05-15T01:43:16.220Z,0
2018-05-15T01:43:42.348Z,0
2018-05-15T01:44:08.484Z,0
2018-05-15T01:44:34.628Z,0
2018-05-15T01:45:00.760Z,0
2018-05-15T01:45:26.904Z,0
2018-05-15T01:45:53.042Z,0
2018-05-15T01:46:19.185Z,0
2018-05-15T01:46:45.330Z,0
2018-05-15T01:47:11.490Z,0
2018-05-15T01:47:37.635Z,0
2018-05-15T01:48:03.777Z,0
2018-05-15T01:48:29.911Z,0
2018-05-15T01:48:56.055Z,0
2018-05-15T01:49:22.194Z,0
2018-05-15T01:49:48.336Z,0
2018-05-15T01:50:14.473Z,0
2018-05-15T01:50:40.615Z,0
2018-05-15T01:51:06.759Z,0
2018-05-15T01:51:32.920Z,0
2018-05-15T01:51:59.060Z,0
2018-05-15T01:52:25.203Z,0
2018-05-15T01:52:51.384Z,0
2018-05-15T01:53:17.539Z,0
2018-05-15T01:53:43.682Z,0
2018-05-15T01:54:09.837Z,0
2018-05-15T01:54:36.004Z,0
2018-05-15T01:55:02.165Z,0
2018-05-15T01:55:28.301Z,0
2018-05-15T01:55:54.445Z,0
2018-05-15T01:56:20.614Z,0
2018-05-15T01:56:46.749Z,0
2018-05-15T01:57:12.890Z,0
2018-05-15T01:57:39.030Z,0
2018-05-15T01:58:05.173Z,0
2018-05-15T01:58:31.317Z,0
2018-05-15T01:58:57.452Z,0
2018-05-15T01:59:23.593Z,0
2018-05-15T01:59:49.732Z,0
2018-05-15T02:00:15.869Z,0
2018-05-15T02:00:42.009Z,0
2018-05-15T02:01:08.177Z,0
2018-05-15T02:01:34.327Z,0
2018-05-15T02:02:00.497Z,0
2018-05-15T02:02:26.632Z,0
2018-05-15T02:02:52.770Z,0
2018-05-15T02:03:18.936Z,0
2018-05-15T02:03:45.080Z,0
2018-05-15T02:04:11.238Z,0
2018-05-15T02:04:37.413Z,0
2018-05-15T02:05:03.570Z,0
2018-05-15T02:05:29.710Z,0
2018-05-15T02:05:55.849Z,0
2018-05-15T02:06:21.991Z,0
2018-05-15T02:06:48.131Z,0
2018-05-15T02:07:14.266Z,0
2018-05-15T02:07:40.406Z,0
2018-05-15T02:08:06.539Z,0
2018-05-15T02:08:32.681Z,0
2018-05-15T02:08:58.826Z,0
2018-05-15T02:09:24.961Z,0
2018-05-15T02:09:51.098Z,0
2018-05-15T02:10:17.235Z,0
2018-05-15T02:10:43.376Z,0
2018-05-15T02:11:09.511Z,0
2018-05-15T02:11:35.653Z,0
2018-05-15T02:12:01.798Z,0
2018-05-15T02:12:27.929Z,0
2018-05-15T02:12:54.069Z,0
2018-05-15T02:13:20.204Z,0
2018-05-15T02:13:46.342Z,0
2018-05-15T02:14:12.484Z,0
2018-05-15T02:14:38.626Z,0
2018-05-15T02:15:04.763Z,0
2018-05-15T02:15:30.902Z,0
2018-05-15T02:15:57.040Z,0
2018-05-15T02:16:23.209Z,0
2018-05-15T02:16:49.350Z,0
2018-05-15T02:17:15.491Z,0
2018-05-15T02:17:41.628Z,0
2018-05-15T02:18:07.798Z,0
2018-05-15T02:18:33.933Z,0
2018-05-15T02:19:00.105Z,0
2018-05-15T02:19:26.296Z,0
2018-05-15T02:19:52.441Z,0
2018-05-15T02:20:18.584Z,0
2018-05-15T02:20:44.722Z,0
2018-05-15T02:21:10.853Z,0
2018-05-15T02:21:36.994Z,0
2018-05-15T02:22:03.138Z,0
2018-05-15T02:22:29.309Z,0
2018-05-15T02:22:55.451Z,0
2018-05-15T02:23:21.585Z,0
2018-05-15T02:23:47.728Z,0
2018-05-15T02:24:13.863Z,0
2018-05-15T02:24:40.009Z,0
2018-05-15T02:25:06.144Z,0
2018-05-15T02:25:32.307Z,0
2018-05-15T02:25:58.443Z,0
2018-05-15T02:26:24.581Z,0
2018-05-15T02:26:50.725Z,0
2018-05-15T02:27:16.870Z,0
2018-05-15T02:27:43.029Z,0
2018-05-15T02:28:09.193Z,0
2018-05-15T02:28:35.304Z,0
2018-05-15T02:29:01.447Z,0
2018-05-15T02:29:27.586Z,0
2018-05-15T02:29:53.730Z,0
2018-05-15T02:30:19.879Z,0
2018-05-15T02:30:46.000Z,0
2018-05-15T02:31:12.168Z,0
2018-05-15T02:31:38.335Z,0
2018-05-15T02:32:04.473Z,0
2018-05-15T02:32:30.655Z,0
2018-05-15T02:32:56.797Z,0
2018-05-15T02:33:23.009Z,0
2018-05-15T02:33:49.169Z,0
2018-05-15T02:34:15.357Z,0
2018-05-15T02:34:41.627Z,0
2018-05-15T02:35:07.696Z,0
2018-05-15T02:35:33.864Z,0
2018-05-15T02:36:00.035Z,0
2018-05-15T02:36:26.224Z,0
2018-05-15T02:36:52.372Z,0
2018-05-15T02:37:18.553Z,0
2018-05-15T02:37:44.701Z,0
2018-05-15T02:38:10.889Z,0
2018-05-15T02:38:37.046Z,0
2018-05-15T02:39:03.215Z,0
2018-05-15T02:39:29.361Z,0
2018-05-15T02:39:55.534Z,0
2018-05-15T02:40:21.727Z,0
2018-05-15T02:40:47.919Z,0
2018-05-15T02:41:14.080Z,0
2018-05-15T02:41:40.275Z,0
2018-05-15T02:42:06.409Z,0
2018-05-15T02:42:32.572Z,0
2018-05-15T02:42:58.726Z,0
2018-05-15T02:43:24.910Z,0
2018-05-15T02:43:51.060Z,0
2018-05-15T02:44:17.231Z,0
2018-05-15T02:44:43.374Z,0
2018-05-15T02:45:09.561Z,0
2018-05-15T02:45:35.696Z,0
2018-05-15T02:46:01.839Z,0
2018-05-15T02:46:27.976Z,0
2018-05-15T02:46:54.118Z,0
2018-05-15T02:47:20.289Z,0
2018-05-15T02:47:46.458Z,0
2018-05-15T02:48:12.620Z,0
2018-05-15T02:48:38.788Z,0
2018-05-15T02:49:04.999Z,0
2018-05-15T02:49:31.186Z,0
2018-05-15T02:49:57.327Z,0
2018-05-15T02:50:23.464Z,0
2018-05-15T02:50:49.620Z,0
2018-05-15T02:51:15.765Z,0
2018-05-15T02:51:41.952Z,0
2018-05-15T02:52:08.140Z,0
2018-05-15T02:52:34.282Z,0
2018-05-15T02:53:00.464Z,0
2018-05-15T02:53:26.640Z,0
2018-05-15T02:53:52.819Z,0
2018-05-15T02:54:18.961Z,0
2018-05-15T02:54:45.146Z,0
2018-05-15T02:55:11.291Z,0
2018-05-15T02:55:37.411Z,0
2018-05-15T02:56:03.558Z,0
2018-05-15T02:56:29.688Z,0
2018-05-15T02:56:55.856Z,0
2018-05-15T02:57:21.982Z,0
2018-05-15T02:57:48.129Z,0
2018-05-15T02:58:14.280Z,0
2018-05-15T02:58:40.446Z,0
2018-05-15T02:59:06.676Z,0
2018-05-15T02:59:32.769Z,0
2018-05-15T02:59:58.968Z,0
2018-05-15T03:00:25.331Z,0
2018-05-15T03:00:51.569Z,0
2018-05-15T03:01:17.801Z,0
2018-05-15T03:01:44.037Z,0
2018-05-15T03:02:10.427Z,0
2018-05-15T03:02:36.647Z,0
2018-05-15T03:03:02.993Z,0
2018-05-15T03:03:29.208Z,0
2018-05-15T03:03:55.393Z,0
2018-05-15T03:04:21.684Z,0
2018-05-15T03:04:48.039Z,0
2018-05-15T03:05:14.281Z,0
2018-05-15T03:05:40.571Z,0
2018-05-15T03:06:06.713Z,0
2018-05-15T03:06:32.880Z,0
2018-05-15T03:06:59.041Z,0
2018-05-15T03:07:25.228Z,0
2018-05-15T03:07:51.390Z,0
2018-05-15T03:08:17.529Z,0
2018-05-15T03:08:43.668Z,0
2018-05-15T03:09:09.833Z,0
2018-05-15T03:09:35.994Z,0
2018-05-15T03:10:02.213Z,0
2018-05-15T03:10:28.404Z,0
2018-05-15T03:10:54.557Z,0
2018-05-15T03:11:20.742Z,0
2018-05-15T03:11:46.954Z,0
2018-05-15T03:12:13.024Z,0
2018-05-15T03:12:39.165Z,0
2018-05-15T03:13:05.349Z,0
2018-05-15T03:13:31.540Z,0
2018-05-15T03:13:57.694Z,0
2018-05-15T03:14:23.833Z,0
2018-05-15T03:14:50.016Z,0
2018-05-15T03:15:16.160Z,0
2018-05-15T03:15:42.297Z,0
2018-05-15T03:16:08.432Z,0
2018-05-15T03:16:34.608Z,0
2018-05-15T03:17:00.758Z,0
2018-05-15T03:17:26.922Z,0
2018-05-15T03:17:53.085Z,0
2018-05-15T03:18:19.230Z,0
2018-05-15T03:18:45.368Z,0
2018-05-15T03:19:11.508Z,0
2018-05-15T03:19:37.647Z,0
2018-05-15T03:20:03.790Z,0
2018-05-15T03:20:29.925Z,0
2018-05-15T03:20:56.071Z,0
2018-05-15T03:21:22.210Z,0
2018-05-15T03:21:48.348Z,0
2018-05-15T03:22:14.487Z,0
2018-05-15T03:22:40.623Z,0
2018-05-15T03:23:06.766Z,0
2018-05-15T03:23:32.952Z,0
2018-05-15T03:23:59.090Z,0
2018-05-15T03:24:25.229Z,0
2018-05-15T03:24:51.370Z,0
2018-05-15T03:25:17.511Z,0
2018-05-15T03:25:43.682Z,0
2018-05-15T03:26:09.820Z,0
2018-05-15T03:26:35.959Z,0
2018-05-15T03:27:02.096Z,5
2018-05-15T03:27:28.236Z,5
2018-05-15T03:27:54.374Z,5
2018-05-15T03:28:20.511Z,5
2018-05-15T03:28:46.675Z,5
2018-05-15T03:29:12.815Z,5
2018-05-15T03:29:38.962Z,5
2018-05-15T03:30:05.089Z,5
2018-05-15T03:30:31.257Z,5
2018-05-15T03:30:57.426Z,5
2018-05-15T03:31:23.592Z,5
2018-05-15T03:31:49.774Z,5
2018-05-15T03:32:15.943Z,5
2018-05-15T03:32:42.082Z,5
2018-05-15T03:33:08.221Z,5
2018-05-15T03:33:34.388Z,5
2018-05-15T03:34:00.550Z,5
2018-05-15T03:34:26.690Z,5
2018-05-15T03:34:52.825Z,10
2018-05-15T03:35:18.964Z,10
2018-05-15T03:35:45.103Z,10
2018-05-15T03:36:11.240Z,10
2018-05-15T03:36:37.380Z,10
2018-05-15T03:37:03.518Z,10
2018-05-15T03:37:29.657Z,10
2018-05-15T03:37:55.800Z,10
2018-05-15T03:38:21.937Z,10
2018-05-15T03:38:48.082Z,10
2018-05-15T03:39:14.215Z,10
2018-05-15T03:39:40.358Z,10
2018-05-15T03:40:06.529Z,15
2018-05-15T03:40:32.692Z,15
2018-05-15T03:40:58.860Z,15
2018-05-15T03:41:25.006Z,15
2018-05-15T03:41:51.143Z,15
2018-05-15T03:42:17.286Z,15
2018-05-15T03:42:43.420Z,15
2018-05-15T03:43:09.591Z,15
2018-05-15T03:43:35.728Z,15
2018-05-15T03:44:01.887Z,15
2018-05-15T03:44:28.049Z,15
2018-05-15T03:44:54.182Z,20
2018-05-15T03:45:20.321Z,20
2018-05-15T03:45:46.457Z,20
2018-05-15T03:46:12.605Z,20
2018-05-15T03:46:38.739Z,20
2018-05-15T03:47:04.877Z,20
2018-05-15T03:47:31.019Z,20
2018-05-15T03:47:57.152Z,20
2018-05-15T03:48:23.298Z,20
2018-05-15T03:48:49.433Z,25
2018-05-15T03:49:15.570Z,25
2018-05-15T03:49:41.714Z,25
2018-05-15T03:50:07.852Z,25
2018-05-15T03:50:33.990Z,25
2018-05-15T03:51:00.129Z,25
2018-05-15T03:51:26.263Z,25
2018-05-15T03:51:52.408Z,25
2018-05-15T03:52:18.546Z,30
2018-05-15T03:52:44.690Z,30
2018-05-15T03:53:10.857Z,30
2018-05-15T03:53:36.995Z,30
2018-05-15T03:54:03.137Z,30
2018-05-15T03:54:29.269Z,30
2018-05-15T03:54:55.434Z,30
2018-05-15T03:55:21.605Z,35
2018-05-15T03:55:47.744Z,35
2018-05-15T03:56:13.878Z,35
2018-05-15T03:56:40.043Z,35
2018-05-15T03:57:06.238Z,35
2018-05-15T03:57:32.393Z,35
2018-05-15T03:57:58.538Z,35
2018-05-15T03:58:24.675Z,40
2018-05-15T03:58:50.820Z,40
2018-05-15T03:59:16.959Z,40
2018-05-15T03:59:43.093Z,40
2018-05-15T04:00:09.234Z,40
2018-05-15T04:00:35.380Z,40
2018-05-15T04:01:01.542Z,40
2018-05-15T04:01:27.703Z,45
2018-05-15T04:01:53.854Z,45
2018-05-15T04:02:20.033Z,45
2018-05-15T04:02:46.179Z,45
2018-05-15T04:03:12.316Z,45
2018-05-15T04:03:38.454Z,45
2018-05-15T04:04:04.617Z,45
2018-05-15T04:04:30.757Z,50
2018-05-15T04:04:56.901Z,50
2018-05-15T04:05:23.036Z,50
2018-05-15T04:05:49.178Z,50
2018-05-15T04:06:15.322Z,50
2018-05-15T04:06:41.461Z,50
2018-05-15T04:07:07.624Z,50
2018-05-15T04:07:33.781Z,55
2018-05-15T04:07:59.938Z,55
2018-05-15T04:08:26.078Z,55
2018-05-15T04:08:52.221Z,55
2018-05-15T04:09:18.365Z,55
2018-05-15T04:09:44.523Z,55
2018-05-15T04:10:10.660Z,55
2018-05-15T04:10:36.812Z,60
2018-05-15T04:11:03.079Z,60
2018-05-15T04:11:29.098Z,60
2018-05-15T04:11:55.263Z,60
2018-05-15T04:12:21.411Z,60
2018-05-15T04:12:47.555Z,60
2018-05-15T04:13:13.689Z,65
2018-05-15T04:13:39.829Z,65
2018-05-15T04:14:05.996Z,65
2018-05-15T04:14:32.162Z,65
2018-05-15T04:14:58.302Z,65
2018-05-15T04:15:24.437Z,65
2018-05-15T04:15:50.601Z,70
2018-05-15T04:16:16.744Z,70
2018-05-15T04:16:42.879Z,70
2018-05-15T04:17:09.037Z,70
2018-05-15T04:17:35.178Z,70
2018-05-15T04:18:01.348Z,70
2018-05-15T04:18:27.484Z,70
2018-05-15T04:18:53.626Z,75
2018-05-15T04:19:19.785Z,75
2018-05-15T04:19:45.926Z,75
2018-05-15T04:20:12.088Z,75
2018-05-15T04:20:38.227Z,75
2018-05-15T04:21:04.367Z,75
2018-05-15T04:21:30.533Z,75
2018-05-15T04:21:56.695Z,80
2018-05-15T04:22:22.835Z,80
2018-05-15T04:22:48.978Z,80
2018-05-15T04:23:15.145Z,80
2018-05-15T04:23:41.285Z,80
2018-05-15T04:24:07.431Z,80
2018-05-15T04:24:33.570Z,85
2018-05-15T04:24:59.701Z,85
2018-05-15T04:25:25.845Z,85
2018-05-15T04:25:51.989Z,85
2018-05-15T04:26:18.153Z,85
2018-05-15T04:26:44.290Z,85
2018-05-15T04:27:10.436Z,90
2018-05-15T04:27:36.574Z,90
2018-05-15T04:28:02.777Z,90
2018-05-15T04:28:28.997Z,90
2018-05-15T04:28:55.042Z,90
2018-05-15T04:29:21.205Z,90
2018-05-15T04:29:47.354Z,95
2018-05-15T04:30:13.512Z,95
2018-05-15T04:30:39.649Z,95
2018-05-15T04:31:05.786Z,95
2018-05-15T04:31:31.927Z,95
2018-05-15T04:31:58.066Z,95
2018-05-15T04:32:24.200Z,100
2018-05-15T04:32:50.344Z,100
2018-05-15T04:33:16.481Z,100
2018-05-15T04:33:42.623Z,100
2018-05-15T04:34:08.767Z,100
2018-05-15T04:34:34.908Z,105
2018-05-15T04:35:01.195Z,105
2018-05-15T04:35:27.314Z,105
2018-05-15T04:35:53.448Z,105
2018-05-15T04:36:19.587Z,105
2018-05-15T04:36:45.755Z,105
2018-05-15T04:37:11.933Z,110
2018-05-15T04:37:38.096Z,110
2018-05-15T04:38:04.240Z,110
2018-05-15T04:38:30.381Z,110
2018-05-15T04:38:56.513Z,110
2018-05-15T04:39:22.652Z,110
2018-05-15T04:39:48.788Z,115
2018-05-15T04:40:14.930Z,115
2018-05-15T04:40:41.071Z,115
2018-05-15T04:41:07.210Z,115
2018-05-15T04:41:33.351Z,115
2018-05-15T04:41:59.492Z,120
2018-05-15T04:42:25.638Z,120
2018-05-15T04:42:51.774Z,120
2018-05-15T04:43:17.921Z,120
2018-05-15T04:43:44.279Z,120
2018-05-15T04:44:10.240Z,115
2018-05-15T04:44:36.387Z,120
2018-05-15T04:45:02.539Z,120
2018-05-15T04:45:28.696Z,120
2018-05-15T04:45:54.835Z,120
2018-05-15T04:46:20.973Z,120
2018-05-15T04:46:47.140Z,125
2018-05-15T04:47:13.305Z,125
2018-05-15T04:47:39.437Z,125
2018-05-15T04:48:05.604Z,125
2018-05-15T04:48:31.739Z,130
2018-05-15T04:48:57.877Z,130
2018-05-15T04:49:24.075Z,130
2018-05-15T04:49:50.198Z,130
2018-05-15T04:50:16.354Z,130
2018-05-15T04:50:42.497Z,135
2018-05-15T04:51:08.661Z,135
2018-05-15T04:51:34.794Z,135
2018-05-15T04:52:00.942Z,135
2018-05-15T04:52:27.082Z,135
2018-05-15T04:52:53.225Z,135
2018-05-15T04:53:19.358Z,140
2018-05-15T04:53:45.501Z,140
2018-05-15T04:54:11.637Z,140
2018-05-15T04:54:37.780Z,140
2018-05-15T04:55:03.945Z,140
2018-05-15T04:55:30.089Z,140
2018-05-15T04:55:56.262Z,140
2018-05-15T04:56:22.399Z,145
2018-05-15T04:56:48.541Z,145
2018-05-15T04:57:14.681Z,145
2018-05-15T04:57:40.816Z,145
2018-05-15T04:58:06.955Z,145
2018-05-15T04:58:33.112Z,145
2018-05-15T04:58:59.253Z,145
2018-05-15T04:59:25.423Z,150
2018-05-15T04:59:51.565Z,150
2018-05-15T05:00:17.746Z,155
2018-05-15T05:00:43.872Z,150
2018-05-15T05:01:10.035Z,150
2018-05-15T05:01:36.186Z,150
2018-05-15T05:02:02.368Z,150
2018-05-15T05:02:28.473Z,150
2018-05-15T05:02:54.617Z,155
2018-05-15T05:03:20.761Z,155
2018-05-15T05:03:46.903Z,155
2018-05-15T05:04:13.071Z,155
2018-05-15T05:04:39.208Z,155
2018-05-15T05:05:05.345Z,155
2018-05-15T05:05:31.490Z,160
2018-05-15T05:05:57.625Z,160
2018-05-15T05:06:23.768Z,160
2018-05-15T05:06:49.920Z,160
2018-05-15T05:07:16.077Z,160
2018-05-15T05:07:42.214Z,160
2018-05-15T05:08:08.349Z,160
2018-05-15T05:08:34.488Z,165
2018-05-15T05:09:00.651Z,165
2018-05-15T05:09:26.803Z,165
2018-05-15T05:09:52.945Z,165
2018-05-15T05:10:19.109Z,165
2018-05-15T05:10:45.257Z,165
2018-05-15T05:11:11.400Z,170
2018-05-15T05:11:37.535Z,170
2018-05-15T05:12:03.673Z,170
2018-05-15T05:12:29.817Z,170
2018-05-15T05:12:55.985Z,170
2018-05-15T05:13:22.143Z,170
2018-05-15T05:13:48.287Z,175
2018-05-15T05:14:14.424Z,175
2018-05-15T05:14:40.590Z,175
2018-05-15T05:15:06.757Z,175
2018-05-15T05:15:32.890Z,175
2018-05-15T05:15:59.034Z,175
2018-05-15T05:16:25.176Z,180
2018-05-15T05:16:51.365Z,180
2018-05-15T05:17:17.532Z,180
2018-05-15T05:17:43.670Z,180
2018-05-15T05:18:09.815Z,180
2018-05-15T05:18:35.975Z,180
2018-05-15T05:19:02.126Z,180
2018-05-15T05:19:28.263Z,180
2018-05-15T05:19:54.404Z,185
2018-05-15T05:20:20.538Z,185
2018-05-15T05:20:46.685Z,185
2018-05-15T05:21:12.823Z,185
2018-05-15T05:21:39.026Z,185
2018-05-15T05:22:05.169Z,185
2018-05-15T05:22:31.325Z,185
2018-05-15T05:22:57.469Z,190
2018-05-15T05:23:23.638Z,190
2018-05-15T05:23:49.779Z,190
2018-05-15T05:24:16.822Z,190
2018-05-15T05:24:43.333Z,190
2018-05-15T05:25:09.539Z,190
2018-05-15T05:25:35.714Z,190
2018-05-15T05:26:01.901Z,195
2018-05-15T05:26:28.028Z,195
2018-05-15T05:26:54.169Z,195
2018-05-15T05:27:20.306Z,195
2018-05-15T05:27:46.449Z,195
2018-05-15T05:28:12.596Z,195
2018-05-15T05:28:38.733Z,200
2018-05-15T05:29:04.889Z,200
2018-05-15T05:29:31.061Z,200
2018-05-15T05:29:57.318Z,200
2018-05-15T05:30:23.471Z,200
2018-05-15T05:30:49.653Z,210
2018-05-15T05:31:15.801Z,205
2018-05-15T05:31:41.940Z,205
2018-05-15T05:32:08.087Z,205
2018-05-15T05:32:34.223Z,205
2018-05-15T05:33:00.368Z,205
2018-05-15T05:33:26.594Z,205
2018-05-15T05:33:52.766Z,205
2018-05-15T05:34:18.899Z,210
2018-05-15T05:34:45.042Z,210
2018-05-15T05:35:11.181Z,210
2018-05-15T05:35:37.317Z,210
2018-05-15T05:36:03.462Z,210
2018-05-15T05:36:29.623Z,210
2018-05-15T05:36:55.764Z,210
2018-05-15T05:37:21.926Z,210
2018-05-15T05:37:48.131Z,215
2018-05-15T05:38:14.322Z,215
2018-05-15T05:38:40.521Z,215
2018-05-15T05:39:06.792Z,215
2018-05-15T05:39:33.020Z,215
2018-05-15T05:39:59.243Z,220
2018-05-15T05:40:25.459Z,220
2018-05-15T05:40:51.638Z,220
2018-05-15T05:41:17.887Z,220
2018-05-15T05:41:44.051Z,220
2018-05-15T05:42:10.308Z,220
2018-05-15T05:42:36.496Z,220
2018-05-15T05:43:02.704Z,220
2018-05-15T05:43:28.869Z,220
2018-05-15T05:43:55.035Z,220
2018-05-15T05:44:21.334Z,220
2018-05-15T05:44:47.486Z,225
2018-05-15T05:45:13.653Z,225
2018-05-15T05:45:39.914Z,225
2018-05-15T05:46:06.096Z,225
2018-05-15T05:46:32.218Z,225
2018-05-15T05:46:58.370Z,225
2018-05-15T05:47:24.532Z,230
2018-05-15T05:47:50.717Z,230
2018-05-15T05:48:16.882Z,230
2018-05-15T05:48:43.027Z,230
2018-05-15T05:49:09.157Z,235
2018-05-15T05:49:35.311Z,230
2018-05-15T05:50:01.447Z,240
2018-05-15T05:50:27.616Z,235
2018-05-15T05:50:53.754Z,235
2018-05-15T05:51:19.891Z,235
2018-05-15T05:51:46.067Z,235
2018-05-15T05:52:12.205Z,235
2018-05-15T05:52:38.341Z,235
2018-05-15T05:53:04.481Z,235
2018-05-15T05:53:30.619Z,240
2018-05-15T05:53:56.754Z,240
2018-05-15T05:54:22.897Z,240
2018-05-15T05:54:49.039Z,240
2018-05-15T05:55:15.189Z,240
2018-05-15T05:55:41.348Z,240
2018-05-15T05:56:07.485Z,240
2018-05-15T05:56:33.631Z,240
2018-05-15T05:56:59.798Z,240
2018-05-15T05:57:25.935Z,240
2018-05-15T05:57:52.077Z,240
2018-05-15T05:58:18.221Z,245
2018-05-15T05:58:44.386Z,245
2018-05-15T05:59:10.519Z,245
2018-05-15T05:59:36.667Z,245
2018-05-15T06:00:02.804Z,245
2018-05-15T06:00:28.945Z,245
2018-05-15T06:00:55.086Z,245
2018-05-15T06:01:21.227Z,245
2018-05-15T06:01:47.365Z,250
2018-05-15T06:02:13.537Z,250
2018-05-15T06:02:39.685Z,250
2018-05-15T06:03:05.818Z,250
2018-05-15T06:03:31.962Z,250
2018-05-15T06:03:58.094Z,250
2018-05-15T06:04:24.261Z,250
2018-05-15T06:04:50.422Z,250
2018-05-15T06:05:16.567Z,255
2018-05-15T06:05:42.703Z,255
2018-05-15T06:06:08.854Z,255
2018-05-15T06:06:34.995Z,255
2018-05-15T06:07:01.159Z,255
2018-05-15T06:07:28.401Z,255
2018-05-15T06:07:54.444Z,260
2018-05-15T06:08:20.613Z,260
2018-05-15T06:08:46.759Z,260
2018-05-15T06:09:12.898Z,260
2018-05-15T06:09:39.040Z,260
2018-05-15T06:10:05.202Z,265
2018-05-15T06:10:31.351Z,265
2018-05-15T06:10:57.512Z,265
2018-05-15T06:11:23.647Z,265
2018-05-15T06:11:49.835Z,265
2018-05-15T06:12:16.002Z,270
2018-05-15T06:12:42.149Z,270
2018-05-15T06:13:08.825Z,270
2018-05-15T06:13:35.165Z,270
2018-05-15T06:14:01.993Z,275
2018-05-15T06:14:29.632Z,275
2018-05-15T06:14:55.776Z,275
2018-05-15T06:15:21.939Z,275
2018-05-15T06:15:48.079Z,275
2018-05-15T06:16:14.247Z,280
2018-05-15T06:16:40.390Z,280
2018-05-15T06:17:06.535Z,280